sensor_id;sensor_type;location;lat;lon;timestamp;temperature;humidity
42913;DHT22;50720;54.324;18.558;2023-02-15T00:01:27;3.60;99.90
42913;DHT22;50720;54.324;18.558;2023-02-15T00:03:57;3.50;99.90
42913;DHT22;50720;54.324;18.558;2023-02-15T00:06:26;3.50;99.90
42913;DHT22;50720;54.324;18.558;2023-02-15T00:08:56;3.50;99.90
42913;DHT22;50720;54.324;18.558;2023-02-15T00:11:27;3.40;99.90
42913;DHT22;50720;54.324;18.558;2023-02-15T00:14:12;3.50;99.90
42913;DHT22;50720;54.324;18.558;2023-02-15T00:16:43;3.40;99.90
42913;DHT22;50720;54.324;18.558;2023-02-15T00:19:13;3.40;99.90
42913;DHT22;50720;54.324;18.558;2023-02-15T00:21:44;3.50;99.90
42913;DHT22;50720;54.324;18.558;2023-02-15T00:24:15;3.50;99.90
42913;DHT22;50720;54.324;18.558;2023-02-15T00:26:48;3.40;99.90
42913;DHT22;50720;54.324;18.558;2023-02-15T00:29:19;3.40;99.90
42913;DHT22;50720;54.324;18.558;2023-02-15T00:31:48;3.40;99.90
42913;DHT22;50720;54.324;18.558;2023-02-15T00:34:20;3.50;99.90
42913;DHT22;50720;54.324;18.558;2023-02-15T00:36:50;3.40;99.90
42913;DHT22;50720;54.324;18.558;2023-02-15T00:39:20;3.40;99.90
42913;DHT22;50720;54.324;18.558;2023-02-15T00:41:51;3.40;99.90
42913;DHT22;50720;54.324;18.558;2023-02-15T00:44:21;3.30;99.90
42913;DHT22;50720;54.324;18.558;2023-02-15T00:46:50;3.30;99.90
42913;DHT22;50720;54.324;18.558;2023-02-15T00:49:20;3.30;99.90
42913;DHT22;50720;54.324;18.558;2023-02-15T00:51:49;3.30;99.90
42913;DHT22;50720;54.324;18.558;2023-02-15T00:54:19;3.20;99.90
42913;DHT22;50720;54.324;18.558;2023-02-15T00:56:50;3.20;99.90
42913;DHT22;50720;54.324;18.558;2023-02-15T00:59:20;3.20;99.90
42913;DHT22;50720;54.324;18.558;2023-02-15T01:01:49;3.20;99.90
42913;DHT22;50720;54.324;18.558;2023-02-15T01:04:19;3.20;99.90
42913;DHT22;50720;54.324;18.558;2023-02-15T01:06:48;3.20;99.90
42913;DHT22;50720;54.324;18.558;2023-02-15T01:09:18;3.20;99.90
42913;DHT22;50720;54.324;18.558;2023-02-15T01:11:48;3.20;99.90
42913;DHT22;50720;54.324;18.558;2023-02-15T01:14:19;3.20;99.90
42913;DHT22;50720;54.324;18.558;2023-02-15T01:16:49;3.10;99.90
42913;DHT22;50720;54.324;18.558;2023-02-15T01:19:19;3.10;99.90
42913;DHT22;50720;54.324;18.558;2023-02-15T01:21:48;3.10;99.90
42913;DHT22;50720;54.324;18.558;2023-02-15T01:24:17;3.10;99.90
42913;DHT22;50720;54.324;18.558;2023-02-15T01:26:47;3.00;99.90
42913;DHT22;50720;54.324;18.558;2023-02-15T01:29:16;3.10;99.90
42913;DHT22;50720;54.324;18.558;2023-02-15T01:31:47;3.10;99.90
42913;DHT22;50720;54.324;18.558;2023-02-15T01:34:17;3.10;99.90
42913;DHT22;50720;54.324;18.558;2023-02-15T01:36:46;3.10;99.90
42913;DHT22;50720;54.324;18.558;2023-02-15T01:39:16;3.00;99.90
42913;DHT22;50720;54.324;18.558;2023-02-15T01:41:46;3.00;99.90
42913;DHT22;50720;54.324;18.558;2023-02-15T01:44:48;3.00;99.90
42913;DHT22;50720;54.324;18.558;2023-02-15T01:47:23;3.00;99.90
42913;DHT22;50720;54.324;18.558;2023-02-15T01:50:04;3.00;99.90
42913;DHT22;50720;54.324;18.558;2023-02-15T01:52:37;3.00;99.90
42913;DHT22;50720;54.324;18.558;2023-02-15T01:55:10;3.10;99.90
42913;DHT22;50720;54.324;18.558;2023-02-15T01:57:41;3.10;99.90
42913;DHT22;50720;54.324;18.558;2023-02-15T02:00:13;3.10;99.90
42913;DHT22;50720;54.324;18.558;2023-02-15T02:02:47;3.10;99.90
42913;DHT22;50720;54.324;18.558;2023-02-15T02:05:18;3.10;99.90
42913;DHT22;50720;54.324;18.558;2023-02-15T02:07:49;3.10;99.90
42913;DHT22;50720;54.324;18.558;2023-02-15T02:10:22;3.10;99.90
42913;DHT22;50720;54.324;18.558;2023-02-15T02:12:55;3.00;99.90
42913;DHT22;50720;54.324;18.558;2023-02-15T02:15:35;3.00;99.90
42913;DHT22;50720;54.324;18.558;2023-02-15T02:18:11;3.00;99.90
42913;DHT22;50720;54.324;18.558;2023-02-15T02:23:56;3.00;99.90
42913;DHT22;50720;54.324;18.558;2023-02-15T02:35:38;3.00;99.90
42913;DHT22;50720;54.324;18.558;2023-02-15T02:38:17;3.00;99.90
42913;DHT22;50720;54.324;18.558;2023-02-15T02:40:54;2.90;99.90
42913;DHT22;50720;54.324;18.558;2023-02-15T02:43:31;2.90;99.90
42913;DHT22;50720;54.324;18.558;2023-02-15T02:46:06;2.90;99.90
42913;DHT22;50720;54.324;18.558;2023-02-15T02:48:38;2.90;99.90
42913;DHT22;50720;54.324;18.558;2023-02-15T02:51:09;2.90;99.90
42913;DHT22;50720;54.324;18.558;2023-02-15T02:53:38;2.80;99.90
42913;DHT22;50720;54.324;18.558;2023-02-15T02:56:16;2.80;99.90
42913;DHT22;50720;54.324;18.558;2023-02-15T02:58:50;2.80;99.90
42913;DHT22;50720;54.324;18.558;2023-02-15T03:01:23;2.80;99.90
42913;DHT22;50720;54.324;18.558;2023-02-15T03:03:57;2.90;99.90
42913;DHT22;50720;54.324;18.558;2023-02-15T03:06:35;2.90;99.90
42913;DHT22;50720;54.324;18.558;2023-02-15T03:09:09;2.80;99.90
42913;DHT22;50720;54.324;18.558;2023-02-15T03:11:43;2.80;99.90
42913;DHT22;50720;54.324;18.558;2023-02-15T03:14:15;2.80;99.90
42913;DHT22;50720;54.324;18.558;2023-02-15T03:16:47;2.80;99.90
42913;DHT22;50720;54.324;18.558;2023-02-15T03:19:20;2.80;99.90
42913;DHT22;50720;54.324;18.558;2023-02-15T03:21:55;2.90;99.90
42913;DHT22;50720;54.324;18.558;2023-02-15T03:24:34;2.80;99.90
42913;DHT22;50720;54.324;18.558;2023-02-15T03:27:06;2.80;99.90
42913;DHT22;50720;54.324;18.558;2023-02-15T03:29:37;2.80;99.90
42913;DHT22;50720;54.324;18.558;2023-02-15T03:32:10;2.80;99.90
42913;DHT22;50720;54.324;18.558;2023-02-15T03:34:41;2.80;99.90
42913;DHT22;50720;54.324;18.558;2023-02-15T03:37:17;2.80;99.90
42913;DHT22;50720;54.324;18.558;2023-02-15T03:39:52;2.80;99.90
42913;DHT22;50720;54.324;18.558;2023-02-15T03:42:25;2.80;99.90
42913;DHT22;50720;54.324;18.558;2023-02-15T03:44:59;2.80;99.90
42913;DHT22;50720;54.324;18.558;2023-02-15T03:47:33;2.80;99.90
42913;DHT22;50720;54.324;18.558;2023-02-15T03:50:07;2.70;99.90
42913;DHT22;50720;54.324;18.558;2023-02-15T03:52:59;2.70;99.90
42913;DHT22;50720;54.324;18.558;2023-02-15T03:55:30;2.80;99.90
42913;DHT22;50720;54.324;18.558;2023-02-15T03:58:00;2.80;99.90
42913;DHT22;50720;54.324;18.558;2023-02-15T04:00:51;2.80;99.90
42913;DHT22;50720;54.324;18.558;2023-02-15T04:03:42;2.80;99.90
42913;DHT22;50720;54.324;18.558;2023-02-15T04:06:13;2.80;99.90
42913;DHT22;50720;54.324;18.558;2023-02-15T04:08:44;2.70;99.90
42913;DHT22;50720;54.324;18.558;2023-02-15T04:11:31;2.80;99.90
42913;DHT22;50720;54.324;18.558;2023-02-15T04:14:00;2.80;99.90
42913;DHT22;50720;54.324;18.558;2023-02-15T04:16:51;2.80;99.90
42913;DHT22;50720;54.324;18.558;2023-02-15T04:19:19;2.80;99.90
42913;DHT22;50720;54.324;18.558;2023-02-15T04:22:06;2.80;99.90
42913;DHT22;50720;54.324;18.558;2023-02-15T04:24:54;2.80;99.90
42913;DHT22;50720;54.324;18.558;2023-02-15T04:27:43;2.80;99.90
42913;DHT22;50720;54.324;18.558;2023-02-15T04:30:14;2.80;99.90
42913;DHT22;50720;54.324;18.558;2023-02-15T04:32:44;2.90;99.90
42913;DHT22;50720;54.324;18.558;2023-02-15T04:35:14;2.90;99.90
42913;DHT22;50720;54.324;18.558;2023-02-15T04:37:45;2.90;99.90
42913;DHT22;50720;54.324;18.558;2023-02-15T04:40:16;2.90;99.90
42913;DHT22;50720;54.324;18.558;2023-02-15T04:42:47;2.90;99.90
42913;DHT22;50720;54.324;18.558;2023-02-15T04:45:18;3.00;99.90
42913;DHT22;50720;54.324;18.558;2023-02-15T04:47:47;3.00;99.90
42913;DHT22;50720;54.324;18.558;2023-02-15T04:50:17;3.00;99.90
42913;DHT22;50720;54.324;18.558;2023-02-15T04:52:47;3.00;99.90
42913;DHT22;50720;54.324;18.558;2023-02-15T04:55:18;3.00;99.90
42913;DHT22;50720;54.324;18.558;2023-02-15T04:57:47;3.10;99.90
42913;DHT22;50720;54.324;18.558;2023-02-15T05:00:17;3.10;99.90
42913;DHT22;50720;54.324;18.558;2023-02-15T05:02:47;3.00;99.90
42913;DHT22;50720;54.324;18.558;2023-02-15T05:05:17;3.00;99.90
42913;DHT22;50720;54.324;18.558;2023-02-15T05:07:47;3.10;99.90
42913;DHT22;50720;54.324;18.558;2023-02-15T05:10:17;3.10;99.90
42913;DHT22;50720;54.324;18.558;2023-02-15T05:12:47;3.10;99.90
42913;DHT22;50720;54.324;18.558;2023-02-15T05:15:17;3.10;99.90
42913;DHT22;50720;54.324;18.558;2023-02-15T05:17:46;3.10;99.90
42913;DHT22;50720;54.324;18.558;2023-02-15T05:20:16;3.10;99.90
42913;DHT22;50720;54.324;18.558;2023-02-15T05:22:46;3.10;99.90
42913;DHT22;50720;54.324;18.558;2023-02-15T05:25:16;3.10;99.90
42913;DHT22;50720;54.324;18.558;2023-02-15T05:28:04;3.00;99.90
42913;DHT22;50720;54.324;18.558;2023-02-15T05:30:50;3.00;99.90
42913;DHT22;50720;54.324;18.558;2023-02-15T05:33:21;3.00;99.90
42913;DHT22;50720;54.324;18.558;2023-02-15T05:35:50;3.10;99.90
42913;DHT22;50720;54.324;18.558;2023-02-15T05:38:20;3.10;99.90
42913;DHT22;50720;54.324;18.558;2023-02-15T05:40:50;3.10;99.90
42913;DHT22;50720;54.324;18.558;2023-02-15T05:43:21;3.10;99.90
42913;DHT22;50720;54.324;18.558;2023-02-15T05:45:52;3.10;99.90
42913;DHT22;50720;54.324;18.558;2023-02-15T05:48:24;3.20;99.90
42913;DHT22;50720;54.324;18.558;2023-02-15T05:50:58;3.20;99.90
42913;DHT22;50720;54.324;18.558;2023-02-15T05:53:29;3.10;99.90
42913;DHT22;50720;54.324;18.558;2023-02-15T05:55:58;3.10;99.90
42913;DHT22;50720;54.324;18.558;2023-02-15T05:58:32;3.10;99.90
42913;DHT22;50720;54.324;18.558;2023-02-15T06:01:07;3.10;99.90
42913;DHT22;50720;54.324;18.558;2023-02-15T06:03:38;3.00;99.90
42913;DHT22;50720;54.324;18.558;2023-02-15T06:06:08;3.10;99.90
42913;DHT22;50720;54.324;18.558;2023-02-15T06:08:38;3.10;99.90
42913;DHT22;50720;54.324;18.558;2023-02-15T06:11:07;3.10;99.90
42913;DHT22;50720;54.324;18.558;2023-02-15T06:13:38;3.10;99.90
42913;DHT22;50720;54.324;18.558;2023-02-15T06:16:08;3.10;99.90
42913;DHT22;50720;54.324;18.558;2023-02-15T06:18:38;3.10;99.90
42913;DHT22;50720;54.324;18.558;2023-02-15T06:21:08;3.00;99.90
42913;DHT22;50720;54.324;18.558;2023-02-15T06:23:38;3.00;99.90
42913;DHT22;50720;54.324;18.558;2023-02-15T06:26:07;3.00;99.90
42913;DHT22;50720;54.324;18.558;2023-02-15T06:28:38;3.00;99.90
42913;DHT22;50720;54.324;18.558;2023-02-15T06:31:09;3.00;99.90
42913;DHT22;50720;54.324;18.558;2023-02-15T06:33:39;2.90;99.90
42913;DHT22;50720;54.324;18.558;2023-02-15T06:36:08;3.00;99.90
42913;DHT22;50720;54.324;18.558;2023-02-15T06:38:38;3.00;99.90
42913;DHT22;50720;54.324;18.558;2023-02-15T06:41:08;3.00;99.90
42913;DHT22;50720;54.324;18.558;2023-02-15T06:43:44;3.00;99.90
42913;DHT22;50720;54.324;18.558;2023-02-15T06:46:13;2.90;99.90
42913;DHT22;50720;54.324;18.558;2023-02-15T06:48:43;3.00;99.90
42913;DHT22;50720;54.324;18.558;2023-02-15T06:51:12;3.00;99.90
42913;DHT22;50720;54.324;18.558;2023-02-15T06:53:42;3.10;99.90
42913;DHT22;50720;54.324;18.558;2023-02-15T06:56:12;3.10;99.90
42913;DHT22;50720;54.324;18.558;2023-02-15T06:58:42;3.20;99.90
42913;DHT22;50720;54.324;18.558;2023-02-15T07:01:15;3.30;99.90
42913;DHT22;50720;54.324;18.558;2023-02-15T07:03:45;3.30;99.90
42913;DHT22;50720;54.324;18.558;2023-02-15T07:06:14;3.20;99.90
42913;DHT22;50720;54.324;18.558;2023-02-15T07:08:44;3.20;99.90
42913;DHT22;50720;54.324;18.558;2023-02-15T07:11:13;3.30;99.90
42913;DHT22;50720;54.324;18.558;2023-02-15T07:14:00;3.30;99.90
42913;DHT22;50720;54.324;18.558;2023-02-15T07:16:31;3.40;99.90
42913;DHT22;50720;54.324;18.558;2023-02-15T07:19:01;3.40;99.90
42913;DHT22;50720;54.324;18.558;2023-02-15T07:21:30;3.30;99.90
42913;DHT22;50720;54.324;18.558;2023-02-15T07:24:00;3.40;99.90
42913;DHT22;50720;54.324;18.558;2023-02-15T07:26:31;3.30;99.90
42913;DHT22;50720;54.324;18.558;2023-02-15T07:29:01;3.40;99.90
42913;DHT22;50720;54.324;18.558;2023-02-15T07:31:32;3.30;99.90
42913;DHT22;50720;54.324;18.558;2023-02-15T07:34:02;3.40;99.90
42913;DHT22;50720;54.324;18.558;2023-02-15T07:36:31;3.40;99.90
42913;DHT22;50720;54.324;18.558;2023-02-15T07:39:01;3.40;99.90
42913;DHT22;50720;54.324;18.558;2023-02-15T07:41:30;3.50;99.90
42913;DHT22;50720;54.324;18.558;2023-02-15T07:44:00;3.50;99.90
42913;DHT22;50720;54.324;18.558;2023-02-15T07:46:31;3.50;99.90
42913;DHT22;50720;54.324;18.558;2023-02-15T07:49:01;3.50;99.90
42913;DHT22;50720;54.324;18.558;2023-02-15T07:51:31;3.50;99.90
42913;DHT22;50720;54.324;18.558;2023-02-15T07:54:01;3.50;99.90
42913;DHT22;50720;54.324;18.558;2023-02-15T07:56:31;3.50;99.90
42913;DHT22;50720;54.324;18.558;2023-02-15T07:59:03;3.50;99.90
42913;DHT22;50720;54.324;18.558;2023-02-15T08:01:36;3.50;99.90
42913;DHT22;50720;54.324;18.558;2023-02-15T08:04:07;3.60;99.90
42913;DHT22;50720;54.324;18.558;2023-02-15T08:06:37;3.60;99.90
42913;DHT22;50720;54.324;18.558;2023-02-15T08:09:08;3.60;99.90
42913;DHT22;50720;54.324;18.558;2023-02-15T08:11:38;3.60;99.90
42913;DHT22;50720;54.324;18.558;2023-02-15T08:14:11;3.60;99.90
42913;DHT22;50720;54.324;18.558;2023-02-15T08:16:44;3.60;99.90
42913;DHT22;50720;54.324;18.558;2023-02-15T08:19:16;3.70;99.90
42913;DHT22;50720;54.324;18.558;2023-02-15T08:21:47;3.70;99.90
42913;DHT22;50720;54.324;18.558;2023-02-15T08:24:19;3.70;99.90
42913;DHT22;50720;54.324;18.558;2023-02-15T08:26:50;3.80;99.90
42913;DHT22;50720;54.324;18.558;2023-02-15T08:29:23;3.80;99.90
42913;DHT22;50720;54.324;18.558;2023-02-15T08:31:55;3.90;99.90
42913;DHT22;50720;54.324;18.558;2023-02-15T08:34:27;3.80;99.90
42913;DHT22;50720;54.324;18.558;2023-02-15T08:36:57;3.90;99.90
42913;DHT22;50720;54.324;18.558;2023-02-15T08:39:27;3.90;99.90
42913;DHT22;50720;54.324;18.558;2023-02-15T08:41:57;4.00;99.90
42913;DHT22;50720;54.324;18.558;2023-02-15T08:44:27;4.00;99.90
42913;DHT22;50720;54.324;18.558;2023-02-15T08:46:59;3.90;99.90
42913;DHT22;50720;54.324;18.558;2023-02-15T08:49:32;3.80;99.90
42913;DHT22;50720;54.324;18.558;2023-02-15T08:52:02;3.80;99.90
42913;DHT22;50720;54.324;18.558;2023-02-15T08:54:31;3.80;99.90
42913;DHT22;50720;54.324;18.558;2023-02-15T08:57:01;3.90;99.90
42913;DHT22;50720;54.324;18.558;2023-02-15T08:59:31;4.00;99.90
42913;DHT22;50720;54.324;18.558;2023-02-15T09:02:02;3.90;99.90
42913;DHT22;50720;54.324;18.558;2023-02-15T09:04:32;4.00;99.90
42913;DHT22;50720;54.324;18.558;2023-02-15T09:07:01;4.00;99.90
42913;DHT22;50720;54.324;18.558;2023-02-15T09:09:32;4.00;99.90
42913;DHT22;50720;54.324;18.558;2023-02-15T09:12:01;4.00;99.90
42913;DHT22;50720;54.324;18.558;2023-02-15T09:14:31;4.00;99.90
42913;DHT22;50720;54.324;18.558;2023-02-15T09:17:02;4.00;99.90
42913;DHT22;50720;54.324;18.558;2023-02-15T09:19:31;4.00;99.90
42913;DHT22;50720;54.324;18.558;2023-02-15T09:22:01;4.00;99.90
42913;DHT22;50720;54.324;18.558;2023-02-15T09:24:31;4.10;99.90
42913;DHT22;50720;54.324;18.558;2023-02-15T09:27:01;4.00;99.90
42913;DHT22;50720;54.324;18.558;2023-02-15T09:29:31;4.10;99.90
42913;DHT22;50720;54.324;18.558;2023-02-15T09:32:03;4.20;99.90
42913;DHT22;50720;54.324;18.558;2023-02-15T09:34:33;4.20;99.90
42913;DHT22;50720;54.324;18.558;2023-02-15T09:37:04;4.10;99.90
42913;DHT22;50720;54.324;18.558;2023-02-15T09:39:37;4.10;99.90
42913;DHT22;50720;54.324;18.558;2023-02-15T09:42:36;4.10;99.90
42913;DHT22;50720;54.324;18.558;2023-02-15T09:45:21;4.00;99.90
42913;DHT22;50720;54.324;18.558;2023-02-15T09:51:12;4.10;99.90
42913;DHT22;50720;54.324;18.558;2023-02-15T09:53:57;4.10;99.90
42913;DHT22;50720;54.324;18.558;2023-02-15T09:56:38;4.20;99.90
42913;DHT22;50720;54.324;18.558;2023-02-15T09:59:15;4.20;99.90
42913;DHT22;50720;54.324;18.558;2023-02-15T10:01:54;4.20;99.90
42913;DHT22;50720;54.324;18.558;2023-02-15T10:04:52;4.20;99.90
42913;DHT22;50720;54.324;18.558;2023-02-15T10:07:41;4.20;99.90
42913;DHT22;50720;54.324;18.558;2023-02-15T10:10:21;4.10;99.90
42913;DHT22;50720;54.324;18.558;2023-02-15T10:13:07;4.10;99.90
42913;DHT22;50720;54.324;18.558;2023-02-15T10:15:57;4.20;99.90
42913;DHT22;50720;54.324;18.558;2023-02-15T10:18:51;4.10;99.90
42913;DHT22;50720;54.324;18.558;2023-02-15T10:21:34;4.20;99.90
42913;DHT22;50720;54.324;18.558;2023-02-15T10:24:27;4.20;99.90
42913;DHT22;50720;54.324;18.558;2023-02-15T10:27:12;4.30;99.90
42913;DHT22;50720;54.324;18.558;2023-02-15T10:29:46;4.30;99.90
42913;DHT22;50720;54.324;18.558;2023-02-15T10:32:22;4.30;99.90
42913;DHT22;50720;54.324;18.558;2023-02-15T10:34:56;4.40;99.90
42913;DHT22;50720;54.324;18.558;2023-02-15T10:37:58;4.40;99.90
42913;DHT22;50720;54.324;18.558;2023-02-15T10:40:37;4.40;99.90
42913;DHT22;50720;54.324;18.558;2023-02-15T10:43:20;4.40;99.90
42913;DHT22;50720;54.324;18.558;2023-02-15T10:45:58;4.50;99.90
42913;DHT22;50720;54.324;18.558;2023-02-15T10:51:39;4.60;99.90
42913;DHT22;50720;54.324;18.558;2023-02-15T10:54:21;4.60;99.90
42913;DHT22;50720;54.324;18.558;2023-02-15T10:57:02;4.70;99.90
42913;DHT22;50720;54.324;18.558;2023-02-15T10:59:53;4.80;99.90
42913;DHT22;50720;54.324;18.558;2023-02-15T11:02:39;4.80;99.90
42913;DHT22;50720;54.324;18.558;2023-02-15T11:05:23;4.90;99.90
42913;DHT22;50720;54.324;18.558;2023-02-15T11:07:56;4.90;99.90
42913;DHT22;50720;54.324;18.558;2023-02-15T11:10:31;5.00;99.90
42913;DHT22;50720;54.324;18.558;2023-02-15T11:13:09;5.00;99.90
42913;DHT22;50720;54.324;18.558;2023-02-15T11:15:42;5.00;99.90
42913;DHT22;50720;54.324;18.558;2023-02-15T11:18:16;5.00;99.90
42913;DHT22;50720;54.324;18.558;2023-02-15T11:20:54;5.00;99.90
42913;DHT22;50720;54.324;18.558;2023-02-15T11:23:25;5.10;99.90
42913;DHT22;50720;54.324;18.558;2023-02-15T11:25:58;5.20;99.90
42913;DHT22;50720;54.324;18.558;2023-02-15T11:28:33;5.20;99.90
42913;DHT22;50720;54.324;18.558;2023-02-15T11:31:18;5.20;99.90
42913;DHT22;50720;54.324;18.558;2023-02-15T11:33:52;5.20;99.90
42913;DHT22;50720;54.324;18.558;2023-02-15T11:36:25;5.20;99.90
42913;DHT22;50720;54.324;18.558;2023-02-15T11:39:00;5.20;99.90
42913;DHT22;50720;54.324;18.558;2023-02-15T11:41:34;5.10;99.90
42913;DHT22;50720;54.324;18.558;2023-02-15T11:44:13;5.10;99.90
42913;DHT22;50720;54.324;18.558;2023-02-15T11:46:44;5.20;99.90
42913;DHT22;50720;54.324;18.558;2023-02-15T11:49:22;5.20;99.90
42913;DHT22;50720;54.324;18.558;2023-02-15T11:51:53;5.30;99.90
42913;DHT22;50720;54.324;18.558;2023-02-15T11:54:26;5.30;99.90
42913;DHT22;50720;54.324;18.558;2023-02-15T11:57:11;5.30;99.90
42913;DHT22;50720;54.324;18.558;2023-02-15T11:59:47;5.40;99.90
42913;DHT22;50720;54.324;18.558;2023-02-15T12:02:21;5.40;99.90
42913;DHT22;50720;54.324;18.558;2023-02-15T12:04:53;5.40;99.90
42913;DHT22;50720;54.324;18.558;2023-02-15T12:07:26;5.40;99.90
42913;DHT22;50720;54.324;18.558;2023-02-15T12:10:02;5.40;99.90
42913;DHT22;50720;54.324;18.558;2023-02-15T12:12:35;5.40;99.90
42913;DHT22;50720;54.324;18.558;2023-02-15T12:15:08;5.50;99.90
42913;DHT22;50720;54.324;18.558;2023-02-15T12:17:40;5.50;99.90
42913;DHT22;50720;54.324;18.558;2023-02-15T12:20:24;5.70;99.90
42913;DHT22;50720;54.324;18.558;2023-02-15T12:22:59;5.70;99.90
42913;DHT22;50720;54.324;18.558;2023-02-15T12:25:36;5.70;99.90
42913;DHT22;50720;54.324;18.558;2023-02-15T12:28:25;5.70;99.90
42913;DHT22;50720;54.324;18.558;2023-02-15T12:30:57;5.80;99.90
42913;DHT22;50720;54.324;18.558;2023-02-15T12:33:30;5.80;99.90
42913;DHT22;50720;54.324;18.558;2023-02-15T12:36:09;5.80;99.90
42913;DHT22;50720;54.324;18.558;2023-02-15T12:38:40;5.90;99.90
42913;DHT22;50720;54.324;18.558;2023-02-15T12:41:23;5.80;99.90
42913;DHT22;50720;54.324;18.558;2023-02-15T12:44:05;5.90;99.90
42913;DHT22;50720;54.324;18.558;2023-02-15T12:46:42;5.80;99.90
42913;DHT22;50720;54.324;18.558;2023-02-15T12:49:25;5.80;99.90
42913;DHT22;50720;54.324;18.558;2023-02-15T12:51:56;5.80;99.90
42913;DHT22;50720;54.324;18.558;2023-02-15T12:54:37;5.80;99.90
42913;DHT22;50720;54.324;18.558;2023-02-15T12:57:24;5.70;99.90
42913;DHT22;50720;54.324;18.558;2023-02-15T12:59:56;5.70;99.90
42913;DHT22;50720;54.324;18.558;2023-02-15T13:02:33;5.70;99.90
42913;DHT22;50720;54.324;18.558;2023-02-15T13:05:14;5.70;99.90
42913;DHT22;50720;54.324;18.558;2023-02-15T13:07:50;5.70;99.90
42913;DHT22;50720;54.324;18.558;2023-02-15T13:10:25;5.80;99.90
42913;DHT22;50720;54.324;18.558;2023-02-15T13:12:56;5.70;99.90
42913;DHT22;50720;54.324;18.558;2023-02-15T13:15:31;5.80;99.90
42913;DHT22;50720;54.324;18.558;2023-02-15T13:18:10;5.70;99.90
42913;DHT22;50720;54.324;18.558;2023-02-15T13:20:41;5.80;99.90
42913;DHT22;50720;54.324;18.558;2023-02-15T13:23:24;5.90;99.90
42913;DHT22;50720;54.324;18.558;2023-02-15T13:25:58;6.10;99.90
42913;DHT22;50720;54.324;18.558;2023-02-15T13:28:34;6.10;99.90
42913;DHT22;50720;54.324;18.558;2023-02-15T13:31:12;6.20;99.90
42913;DHT22;50720;54.324;18.558;2023-02-15T13:33:46;6.30;99.90
42913;DHT22;50720;54.324;18.558;2023-02-15T13:36:23;6.30;99.90
42913;DHT22;50720;54.324;18.558;2023-02-15T13:39:10;6.20;99.90
42913;DHT22;50720;54.324;18.558;2023-02-15T13:41:51;6.40;99.90
42913;DHT22;50720;54.324;18.558;2023-02-15T13:47:21;6.40;99.90
42913;DHT22;50720;54.324;18.558;2023-02-15T13:50:05;6.40;99.90
42913;DHT22;50720;54.324;18.558;2023-02-15T13:52:45;6.50;99.90
42913;DHT22;50720;54.324;18.558;2023-02-15T13:55:34;6.40;99.90
42913;DHT22;50720;54.324;18.558;2023-02-15T14:01:10;6.50;99.90
42913;DHT22;50720;54.324;18.558;2023-02-15T14:04:01;6.60;99.90
42913;DHT22;50720;54.324;18.558;2023-02-15T14:06:58;6.50;99.90
42913;DHT22;50720;54.324;18.558;2023-02-15T14:09:43;6.40;99.90
42913;DHT22;50720;54.324;18.558;2023-02-15T14:12:27;6.30;99.90
42913;DHT22;50720;54.324;18.558;2023-02-15T14:15:26;6.30;99.90
42913;DHT22;50720;54.324;18.558;2023-02-15T14:18:04;6.20;99.90
42913;DHT22;50720;54.324;18.558;2023-02-15T14:20:51;6.00;99.90
42913;DHT22;50720;54.324;18.558;2023-02-15T14:23:38;6.00;99.90
42913;DHT22;50720;54.324;18.558;2023-02-15T14:26:15;6.20;99.90
42913;DHT22;50720;54.324;18.558;2023-02-15T14:28:51;6.10;99.90
42913;DHT22;50720;54.324;18.558;2023-02-15T14:31:29;6.10;99.90
42913;DHT22;50720;54.324;18.558;2023-02-15T14:34:01;6.00;99.90
42913;DHT22;50720;54.324;18.558;2023-02-15T14:36:31;5.90;99.90
42913;DHT22;50720;54.324;18.558;2023-02-15T14:39:17;5.90;99.90
42913;DHT22;50720;54.324;18.558;2023-02-15T14:42:11;5.80;99.90
42913;DHT22;50720;54.324;18.558;2023-02-15T14:44:48;5.80;99.90
42913;DHT22;50720;54.324;18.558;2023-02-15T14:47:23;5.80;99.90
42913;DHT22;50720;54.324;18.558;2023-02-15T14:49:54;5.60;99.90
42913;DHT22;50720;54.324;18.558;2023-02-15T14:52:23;5.50;99.90
42913;DHT22;50720;54.324;18.558;2023-02-15T14:54:59;5.50;99.90
42913;DHT22;50720;54.324;18.558;2023-02-15T14:57:33;5.50;99.90
42913;DHT22;50720;54.324;18.558;2023-02-15T15:00:29;5.50;99.90
42913;DHT22;50720;54.324;18.558;2023-02-15T15:03:00;5.40;99.90
42913;DHT22;50720;54.324;18.558;2023-02-15T15:05:34;5.40;99.90
42913;DHT22;50720;54.324;18.558;2023-02-15T15:08:05;5.20;99.90
42913;DHT22;50720;54.324;18.558;2023-02-15T15:10:39;5.10;99.90
42913;DHT22;50720;54.324;18.558;2023-02-15T15:13:35;5.00;99.90
42913;DHT22;50720;54.324;18.558;2023-02-15T15:19:10;4.90;99.90
42913;DHT22;50720;54.324;18.558;2023-02-15T15:21:56;4.80;99.90
42913;DHT22;50720;54.324;18.558;2023-02-15T15:24:48;4.80;99.90
42913;DHT22;50720;54.324;18.558;2023-02-15T15:27:45;4.80;99.90
42913;DHT22;50720;54.324;18.558;2023-02-15T15:34:01;4.60;99.90
42913;DHT22;50720;54.324;18.558;2023-02-15T15:40:36;4.50;99.90
42913;DHT22;50720;54.324;18.558;2023-02-15T15:46:41;4.40;99.90
42913;DHT22;50720;54.324;18.558;2023-02-15T15:49:17;4.30;99.90
42913;DHT22;50720;54.324;18.558;2023-02-15T15:51:47;4.30;99.90
42913;DHT22;50720;54.324;18.558;2023-02-15T15:54:19;4.30;99.90
42913;DHT22;50720;54.324;18.558;2023-02-15T15:56:51;4.30;99.90
42913;DHT22;50720;54.324;18.558;2023-02-15T15:59:25;4.20;99.90
42913;DHT22;50720;54.324;18.558;2023-02-15T16:01:55;4.10;99.90
42913;DHT22;50720;54.324;18.558;2023-02-15T16:04:27;4.00;99.90
42913;DHT22;50720;54.324;18.558;2023-02-15T16:06:58;4.00;99.90
42913;DHT22;50720;54.324;18.558;2023-02-15T16:09:54;3.90;99.90
42913;DHT22;50720;54.324;18.558;2023-02-15T16:12:24;3.80;99.90
42913;DHT22;50720;54.324;18.558;2023-02-15T16:14:56;3.80;99.90
42913;DHT22;50720;54.324;18.558;2023-02-15T16:17:27;3.80;99.90
42913;DHT22;50720;54.324;18.558;2023-02-15T16:20:03;3.70;99.90
42913;DHT22;50720;54.324;18.558;2023-02-15T16:22:35;3.60;99.90
42913;DHT22;50720;54.324;18.558;2023-02-15T16:25:21;3.60;99.90
42913;DHT22;50720;54.324;18.558;2023-02-15T16:27:54;3.60;99.90
42913;DHT22;50720;54.324;18.558;2023-02-15T16:30:27;3.50;99.90
42913;DHT22;50720;54.324;18.558;2023-02-15T16:33:05;3.50;99.90
42913;DHT22;50720;54.324;18.558;2023-02-15T16:35:37;3.40;99.90
42913;DHT22;50720;54.324;18.558;2023-02-15T16:38:10;3.40;99.90
42913;DHT22;50720;54.324;18.558;2023-02-15T16:40:48;3.40;99.90
42913;DHT22;50720;54.324;18.558;2023-02-15T16:43:23;3.30;99.90
42913;DHT22;50720;54.324;18.558;2023-02-15T16:46:02;3.30;99.90
42913;DHT22;50720;54.324;18.558;2023-02-15T16:48:34;3.20;99.90
42913;DHT22;50720;54.324;18.558;2023-02-15T16:51:04;3.20;99.90
42913;DHT22;50720;54.324;18.558;2023-02-15T16:53:34;3.20;99.90
42913;DHT22;50720;54.324;18.558;2023-02-15T16:56:05;3.10;99.90